sensor_id;sensor_type;location;lat;lon;timestamp;P1;durP1;ratioP1;P2;durP2;ratioP2
10226;SDS011;15634;48.766;2.272;2023-02-24T00:01:48;45.88;;;19.55;;
10226;SDS011;15634;48.766;2.272;2023-02-24T00:04:18;45.35;;;19.92;;
10226;SDS011;15634;48.766;2.272;2023-02-24T00:06:46;43.97;;;21.92;;
10226;SDS011;15634;48.766;2.272;2023-02-24T00:09:14;43.25;;;20.05;;
10226;SDS011;15634;48.766;2.272;2023-02-24T00:11:45;44.63;;;19.73;;
10226;SDS011;15634;48.766;2.272;2023-02-24T00:14:13;40.92;;;19.30;;
10226;SDS011;15634;48.766;2.272;2023-02-24T00:16:41;42.63;;;18.73;;
10226;SDS011;15634;48.766;2.272;2023-02-24T00:19:09;39.90;;;18.73;;
10226;SDS011;15634;48.766;2.272;2023-02-24T00:21:38;43.10;;;19.50;;
10226;SDS011;15634;48.766;2.272;2023-02-24T00:24:06;40.75;;;19.05;;
10226;SDS011;15634;48.766;2.272;2023-02-24T00:26:34;43.42;;;18.95;;
10226;SDS011;15634;48.766;2.272;2023-02-24T00:29:02;46.10;;;18.83;;
10226;SDS011;15634;48.766;2.272;2023-02-24T00:31:29;43.42;;;19.10;;
10226;SDS011;15634;48.766;2.272;2023-02-24T00:33:56;45.20;;;19.10;;
10226;SDS011;15634;48.766;2.272;2023-02-24T00:36:24;42.33;;;19.23;;
10226;SDS011;15634;48.766;2.272;2023-02-24T00:38:53;40.63;;;19.13;;
10226;SDS011;15634;48.766;2.272;2023-02-24T00:41:22;46.60;;;19.35;;
10226;SDS011;15634;48.766;2.272;2023-02-24T00:43:53;42.97;;;19.77;;
10226;SDS011;15634;48.766;2.272;2023-02-24T00:46:21;42.58;;;18.88;;
10226;SDS011;15634;48.766;2.272;2023-02-24T00:48:50;45.47;;;19.77;;
10226;SDS011;15634;48.766;2.272;2023-02-24T00:51:20;43.72;;;20.25;;
10226;SDS011;15634;48.766;2.272;2023-02-24T00:53:48;40.55;;;19.45;;
10226;SDS011;15634;48.766;2.272;2023-02-24T00:56:17;45.95;;;20.20;;
10226;SDS011;15634;48.766;2.272;2023-02-24T00:58:44;44.47;;;19.58;;
10226;SDS011;15634;48.766;2.272;2023-02-24T01:01:11;45.33;;;20.60;;
10226;SDS011;15634;48.766;2.272;2023-02-24T01:03:39;44.47;;;20.02;;
10226;SDS011;15634;48.766;2.272;2023-02-24T01:06:06;47.95;;;21.60;;
10226;SDS011;15634;48.766;2.272;2023-02-24T01:08:33;49.92;;;22.73;;
10226;SDS011;15634;48.766;2.272;2023-02-24T01:11:00;54.70;;;23.77;;
10226;SDS011;15634;48.766;2.272;2023-02-24T01:13:47;46.13;;;22.48;;
10226;SDS011;15634;48.766;2.272;2023-02-24T01:16:14;54.80;;;24.23;;
10226;SDS011;15634;48.766;2.272;2023-02-24T01:18:42;49.85;;;22.58;;
10226;SDS011;15634;48.766;2.272;2023-02-24T01:21:09;49.28;;;23.20;;
10226;SDS011;15634;48.766;2.272;2023-02-24T01:23:38;60.58;;;25.33;;
10226;SDS011;15634;48.766;2.272;2023-02-24T01:26:05;53.20;;;24.20;;
10226;SDS011;15634;48.766;2.272;2023-02-24T01:28:32;54.38;;;23.58;;
10226;SDS011;15634;48.766;2.272;2023-02-24T01:31:01;57.50;;;25.27;;
10226;SDS011;15634;48.766;2.272;2023-02-24T01:33:29;57.28;;;25.85;;
10226;SDS011;15634;48.766;2.272;2023-02-24T01:36:06;56.50;;;24.15;;
10226;SDS011;15634;48.766;2.272;2023-02-24T01:38:34;62.00;;;24.88;;
10226;SDS011;15634;48.766;2.272;2023-02-24T01:41:02;55.70;;;24.02;;
10226;SDS011;15634;48.766;2.272;2023-02-24T01:43:30;59.97;;;25.05;;
10226;SDS011;15634;48.766;2.272;2023-02-24T01:45:57;52.88;;;25.02;;
10226;SDS011;15634;48.766;2.272;2023-02-24T01:48:25;56.50;;;26.02;;
10226;SDS011;15634;48.766;2.272;2023-02-24T01:50:54;59.58;;;25.75;;
10226;SDS011;15634;48.766;2.272;2023-02-24T01:53:20;59.83;;;26.63;;
10226;SDS011;15634;48.766;2.272;2023-02-24T01:55:48;63.05;;;27.63;;
10226;SDS011;15634;48.766;2.272;2023-02-24T01:58:18;66.10;;;27.60;;
10226;SDS011;15634;48.766;2.272;2023-02-24T02:00:46;60.38;;;25.67;;
10226;SDS011;15634;48.766;2.272;2023-02-24T02:03:18;67.68;;;27.80;;
10226;SDS011;15634;48.766;2.272;2023-02-24T02:05:51;61.25;;;27.45;;
10226;SDS011;15634;48.766;2.272;2023-02-24T02:08:18;65.20;;;27.70;;
10226;SDS011;15634;48.766;2.272;2023-02-24T02:10:48;59.00;;;27.33;;
10226;SDS011;15634;48.766;2.272;2023-02-24T02:13:21;63.75;;;27.58;;
10226;SDS011;15634;48.766;2.272;2023-02-24T02:15:51;64.10;;;28.02;;
10226;SDS011;15634;48.766;2.272;2023-02-24T02:18:26;63.45;;;27.60;;
10226;SDS011;15634;48.766;2.272;2023-02-24T02:23:59;61.97;;;25.90;;
10226;SDS011;15634;48.766;2.272;2023-02-24T02:26:50;60.88;;;27.33;;
10226;SDS011;15634;48.766;2.272;2023-02-24T02:29:31;64.82;;;26.98;;
10226;SDS011;15634;48.766;2.272;2023-02-24T02:32:26;61.30;;;26.83;;
10226;SDS011;15634;48.766;2.272;2023-02-24T02:35:08;60.50;;;26.67;;
10226;SDS011;15634;48.766;2.272;2023-02-24T02:37:39;63.42;;;27.20;;
10226;SDS011;15634;48.766;2.272;2023-02-24T02:40:12;60.75;;;26.98;;
10226;SDS011;15634;48.766;2.272;2023-02-24T02:42:46;58.67;;;25.42;;
10226;SDS011;15634;48.766;2.272;2023-02-24T02:45:19;67.95;;;27.92;;
10226;SDS011;15634;48.766;2.272;2023-02-24T02:47:49;62.25;;;27.00;;
10226;SDS011;15634;48.766;2.272;2023-02-24T02:50:20;62.13;;;27.75;;
10226;SDS011;15634;48.766;2.272;2023-02-24T02:52:52;62.47;;;26.57;;
10226;SDS011;15634;48.766;2.272;2023-02-24T02:55:23;66.15;;;28.70;;
10226;SDS011;15634;48.766;2.272;2023-02-24T02:57:54;64.20;;;29.23;;
10226;SDS011;15634;48.766;2.272;2023-02-24T03:00:22;62.63;;;28.55;;
10226;SDS011;15634;48.766;2.272;2023-02-24T03:02:54;65.78;;;28.73;;
10226;SDS011;15634;48.766;2.272;2023-02-24T03:05:29;66.05;;;28.95;;
10226;SDS011;15634;48.766;2.272;2023-02-24T03:08:01;67.18;;;30.35;;
10226;SDS011;15634;48.766;2.272;2023-02-24T03:10:30;69.45;;;29.15;;
10226;SDS011;15634;48.766;2.272;2023-02-24T03:12:58;66.07;;;30.60;;
10226;SDS011;15634;48.766;2.272;2023-02-24T03:15:28;65.57;;;29.95;;
10226;SDS011;15634;48.766;2.272;2023-02-24T03:17:59;68.53;;;29.33;;
10226;SDS011;15634;48.766;2.272;2023-02-24T03:20:30;68.70;;;29.35;;
10226;SDS011;15634;48.766;2.272;2023-02-24T03:23:02;63.50;;;27.75;;
10226;SDS011;15634;48.766;2.272;2023-02-24T03:25:35;69.15;;;29.88;;
10226;SDS011;15634;48.766;2.272;2023-02-24T03:28:05;70.22;;;29.58;;
10226;SDS011;15634;48.766;2.272;2023-02-24T03:30:38;70.07;;;29.80;;
10226;SDS011;15634;48.766;2.272;2023-02-24T03:33:08;70.57;;;31.15;;
10226;SDS011;15634;48.766;2.272;2023-02-24T03:35:42;69.28;;;29.67;;
10226;SDS011;15634;48.766;2.272;2023-02-24T03:38:08;67.35;;;28.95;;
10226;SDS011;15634;48.766;2.272;2023-02-24T03:40:36;68.07;;;29.50;;
10226;SDS011;15634;48.766;2.272;2023-02-24T03:43:04;68.50;;;30.50;;
10226;SDS011;15634;48.766;2.272;2023-02-24T03:45:36;62.53;;;28.90;;
10226;SDS011;15634;48.766;2.272;2023-02-24T03:48:03;61.08;;;29.35;;
10226;SDS011;15634;48.766;2.272;2023-02-24T03:50:31;61.55;;;28.77;;
10226;SDS011;15634;48.766;2.272;2023-02-24T03:53:01;64.68;;;29.40;;
10226;SDS011;15634;48.766;2.272;2023-02-24T03:55:49;62.22;;;28.55;;
10226;SDS011;15634;48.766;2.272;2023-02-24T03:58:25;68.32;;;29.90;;
10226;SDS011;15634;48.766;2.272;2023-02-24T04:03:25;63.65;;;28.98;;
10226;SDS011;15634;48.766;2.272;2023-02-24T04:05:59;63.80;;;28.67;;
10226;SDS011;15634;48.766;2.272;2023-02-24T04:08:36;64.82;;;28.95;;
10226;SDS011;15634;48.766;2.272;2023-02-24T04:11:08;58.97;;;28.38;;
10226;SDS011;15634;48.766;2.272;2023-02-24T04:13:38;59.47;;;28.23;;
10226;SDS011;15634;48.766;2.272;2023-02-24T04:16:08;62.97;;;28.30;;
10226;SDS011;15634;48.766;2.272;2023-02-24T04:18:41;61.78;;;28.63;;
10226;SDS011;15634;48.766;2.272;2023-02-24T04:21:11;60.03;;;25.60;;
10226;SDS011;15634;48.766;2.272;2023-02-24T04:23:40;58.85;;;26.85;;
10226;SDS011;15634;48.766;2.272;2023-02-24T04:26:08;60.13;;;26.85;;
10226;SDS011;15634;48.766;2.272;2023-02-24T04:28:36;55.90;;;27.70;;
10226;SDS011;15634;48.766;2.272;2023-02-24T04:31:05;61.67;;;28.20;;
10226;SDS011;15634;48.766;2.272;2023-02-24T04:33:35;59.80;;;26.70;;
10226;SDS011;15634;48.766;2.272;2023-02-24T04:36:04;58.45;;;27.23;;
10226;SDS011;15634;48.766;2.272;2023-02-24T04:38:33;56.58;;;26.15;;
10226;SDS011;15634;48.766;2.272;2023-02-24T04:41:01;58.67;;;26.65;;
10226;SDS011;15634;48.766;2.272;2023-02-24T04:43:28;56.17;;;26.88;;
10226;SDS011;15634;48.766;2.272;2023-02-24T04:45:55;57.53;;;27.38;;
10226;SDS011;15634;48.766;2.272;2023-02-24T04:48:22;54.17;;;27.23;;
10226;SDS011;15634;48.766;2.272;2023-02-24T04:50:48;57.47;;;26.65;;
10226;SDS011;15634;48.766;2.272;2023-02-24T04:53:19;52.95;;;26.50;;
10226;SDS011;15634;48.766;2.272;2023-02-24T04:55:51;55.03;;;25.98;;
10226;SDS011;15634;48.766;2.272;2023-02-24T04:58:20;53.58;;;25.90;;
10226;SDS011;15634;48.766;2.272;2023-02-24T05:00:48;57.22;;;26.05;;
10226;SDS011;15634;48.766;2.272;2023-02-24T05:03:16;56.95;;;26.30;;
10226;SDS011;15634;48.766;2.272;2023-02-24T05:05:47;53.67;;;26.23;;
10226;SDS011;15634;48.766;2.272;2023-02-24T05:08:16;55.85;;;26.17;;
10226;SDS011;15634;48.766;2.272;2023-02-24T05:10:44;57.08;;;25.85;;
10226;SDS011;15634;48.766;2.272;2023-02-24T05:13:12;56.83;;;26.23;;
10226;SDS011;15634;48.766;2.272;2023-02-24T05:15:41;52.92;;;26.25;;
10226;SDS011;15634;48.766;2.272;2023-02-24T05:18:11;55.50;;;26.33;;
10226;SDS011;15634;48.766;2.272;2023-02-24T05:20:41;54.78;;;24.95;;
10226;SDS011;15634;48.766;2.272;2023-02-24T05:23:28;55.80;;;26.02;;
10226;SDS011;15634;48.766;2.272;2023-02-24T05:25:57;51.25;;;25.20;;
10226;SDS011;15634;48.766;2.272;2023-02-24T05:28:24;49.65;;;24.95;;
10226;SDS011;15634;48.766;2.272;2023-02-24T05:31:02;52.40;;;25.38;;
10226;SDS011;15634;48.766;2.272;2023-02-24T05:33:32;56.90;;;26.73;;
10226;SDS011;15634;48.766;2.272;2023-02-24T05:36:01;53.85;;;26.00;;
10226;SDS011;15634;48.766;2.272;2023-02-24T05:38:29;56.58;;;27.00;;
10226;SDS011;15634;48.766;2.272;2023-02-24T05:41:02;52.60;;;25.50;;
10226;SDS011;15634;48.766;2.272;2023-02-24T05:43:30;51.33;;;25.40;;
10226;SDS011;15634;48.766;2.272;2023-02-24T05:46:01;52.42;;;24.73;;
10226;SDS011;15634;48.766;2.272;2023-02-24T05:48:28;53.53;;;26.45;;
10226;SDS011;15634;48.766;2.272;2023-02-24T05:50:59;53.88;;;25.73;;
10226;SDS011;15634;48.766;2.272;2023-02-24T05:53:26;54.25;;;26.42;;
10226;SDS011;15634;48.766;2.272;2023-02-24T05:55:53;56.25;;;27.55;;
10226;SDS011;15634;48.766;2.272;2023-02-24T05:58:20;50.97;;;26.50;;
10226;SDS011;15634;48.766;2.272;2023-02-24T06:00:48;58.25;;;25.80;;
10226;SDS011;15634;48.766;2.272;2023-02-24T06:03:17;55.30;;;27.23;;
10226;SDS011;15634;48.766;2.272;2023-02-24T06:05:54;59.55;;;26.90;;
10226;SDS011;15634;48.766;2.272;2023-02-24T06:08:23;55.53;;;28.63;;
10226;SDS011;15634;48.766;2.272;2023-02-24T06:10:50;59.20;;;28.33;;
10226;SDS011;15634;48.766;2.272;2023-02-24T06:13:17;61.35;;;29.63;;
10226;SDS011;15634;48.766;2.272;2023-02-24T06:15:43;61.13;;;29.05;;
10226;SDS011;15634;48.766;2.272;2023-02-24T06:18:14;66.45;;;31.00;;
10226;SDS011;15634;48.766;2.272;2023-02-24T06:20:42;61.05;;;30.13;;
10226;SDS011;15634;48.766;2.272;2023-02-24T06:23:15;60.63;;;29.80;;
10226;SDS011;15634;48.766;2.272;2023-02-24T06:25:42;66.22;;;31.20;;
10226;SDS011;15634;48.766;2.272;2023-02-24T06:28:08;62.90;;;28.85;;
10226;SDS011;15634;48.766;2.272;2023-02-24T06:30:35;62.05;;;29.73;;
10226;SDS011;15634;48.766;2.272;2023-02-24T06:33:02;57.75;;;28.65;;
10226;SDS011;15634;48.766;2.272;2023-02-24T06:35:30;66.00;;;29.52;;
10226;SDS011;15634;48.766;2.272;2023-02-24T06:37:58;58.40;;;28.25;;
10226;SDS011;15634;48.766;2.272;2023-02-24T06:40:25;62.80;;;30.27;;
10226;SDS011;15634;48.766;2.272;2023-02-24T06:42:52;59.72;;;29.50;;
10226;SDS011;15634;48.766;2.272;2023-02-24T06:45:19;56.30;;;28.27;;
10226;SDS011;15634;48.766;2.272;2023-02-24T06:47:46;57.88;;;28.85;;
10226;SDS011;15634;48.766;2.272;2023-02-24T06:50:13;64.43;;;28.98;;
10226;SDS011;15634;48.766;2.272;2023-02-24T06:52:43;61.33;;;29.02;;
10226;SDS011;15634;48.766;2.272;2023-02-24T06:55:11;53.28;;;26.83;;
10226;SDS011;15634;48.766;2.272;2023-02-24T06:57:50;59.85;;;28.70;;
10226;SDS011;15634;48.766;2.272;2023-02-24T07:00:22;59.40;;;28.02;;
10226;SDS011;15634;48.766;2.272;2023-02-24T07:03:00;58.40;;;28.17;;
10226;SDS011;15634;48.766;2.272;2023-02-24T07:05:38;56.85;;;28.55;;
10226;SDS011;15634;48.766;2.272;2023-02-24T07:08:06;57.13;;;28.73;;
10226;SDS011;15634;48.766;2.272;2023-02-24T07:10:34;58.40;;;27.88;;
10226;SDS011;15634;48.766;2.272;2023-02-24T07:13:01;58.00;;;27.90;;
10226;SDS011;15634;48.766;2.272;2023-02-24T07:15:27;55.95;;;26.75;;
10226;SDS011;15634;48.766;2.272;2023-02-24T07:17:56;57.47;;;27.02;;
10226;SDS011;15634;48.766;2.272;2023-02-24T07:20:22;56.13;;;26.73;;
10226;SDS011;15634;48.766;2.272;2023-02-24T07:22:50;51.78;;;26.40;;
10226;SDS011;15634;48.766;2.272;2023-02-24T07:25:17;54.42;;;25.80;;
10226;SDS011;15634;48.766;2.272;2023-02-24T07:27:58;54.17;;;24.50;;
10226;SDS011;15634;48.766;2.272;2023-02-24T07:30:26;59.50;;;25.98;;
10226;SDS011;15634;48.766;2.272;2023-02-24T07:32:54;57.50;;;25.88;;
10226;SDS011;15634;48.766;2.272;2023-02-24T07:35:21;53.35;;;25.33;;
10226;SDS011;15634;48.766;2.272;2023-02-24T07:37:48;57.67;;;26.85;;
10226;SDS011;15634;48.766;2.272;2023-02-24T07:40:16;58.60;;;27.33;;
10226;SDS011;15634;48.766;2.272;2023-02-24T07:42:45;53.85;;;26.17;;
10226;SDS011;15634;48.766;2.272;2023-02-24T07:45:14;54.85;;;25.80;;
10226;SDS011;15634;48.766;2.272;2023-02-24T07:47:41;58.83;;;26.50;;
10226;SDS011;15634;48.766;2.272;2023-02-24T07:50:08;52.53;;;25.40;;
10226;SDS011;15634;48.766;2.272;2023-02-24T07:52:38;52.42;;;25.73;;
10226;SDS011;15634;48.766;2.272;2023-02-24T07:55:06;57.28;;;25.17;;
10226;SDS011;15634;48.766;2.272;2023-02-24T07:57:34;71.10;;;33.17;;
10226;SDS011;15634;48.766;2.272;2023-02-24T08:00:02;54.92;;;24.52;;
10226;SDS011;15634;48.766;2.272;2023-02-24T08:02:45;55.85;;;25.30;;
10226;SDS011;15634;48.766;2.272;2023-02-24T08:05:13;62.40;;;27.00;;
10226;SDS011;15634;48.766;2.272;2023-02-24T08:07:39;57.42;;;26.00;;
10226;SDS011;15634;48.766;2.272;2023-02-24T08:10:07;54.65;;;25.17;;
10226;SDS011;15634;48.766;2.272;2023-02-24T08:12:49;56.17;;;26.10;;
10226;SDS011;15634;48.766;2.272;2023-02-24T08:15:18;54.42;;;24.65;;
10226;SDS011;15634;48.766;2.272;2023-02-24T08:17:50;53.08;;;24.55;;
10226;SDS011;15634;48.766;2.272;2023-02-24T08:20:18;63.42;;;27.38;;
10226;SDS011;15634;48.766;2.272;2023-02-24T08:22:50;61.35;;;26.27;;
10226;SDS011;15634;48.766;2.272;2023-02-24T08:25:18;57.13;;;25.30;;
10226;SDS011;15634;48.766;2.272;2023-02-24T08:27:47;60.50;;;25.83;;
10226;SDS011;15634;48.766;2.272;2023-02-24T08:30:20;56.90;;;24.35;;
10226;SDS011;15634;48.766;2.272;2023-02-24T08:32:50;58.90;;;25.38;;
10226;SDS011;15634;48.766;2.272;2023-02-24T08:35:22;56.78;;;26.25;;
10226;SDS011;15634;48.766;2.272;2023-02-24T08:37:50;57.97;;;25.67;;
10226;SDS011;15634;48.766;2.272;2023-02-24T08:40:20;58.22;;;25.23;;
10226;SDS011;15634;48.766;2.272;2023-02-24T08:43:02;55.42;;;23.90;;
10226;SDS011;15634;48.766;2.272;2023-02-24T08:45:42;54.97;;;23.88;;
10226;SDS011;15634;48.766;2.272;2023-02-24T08:48:11;52.80;;;24.42;;
10226;SDS011;15634;48.766;2.272;2023-02-24T08:50:51;52.15;;;23.80;;
10226;SDS011;15634;48.766;2.272;2023-02-24T08:53:18;55.88;;;24.17;;
10226;SDS011;15634;48.766;2.272;2023-02-24T08:55:46;55.90;;;23.42;;
10226;SDS011;15634;48.766;2.272;2023-02-24T08:58:16;56.67;;;24.13;;
10226;SDS011;15634;48.766;2.272;2023-02-24T09:00:43;48.63;;;24.60;;
10226;SDS011;15634;48.766;2.272;2023-02-24T09:03:20;53.45;;;23.10;;
10226;SDS011;15634;48.766;2.272;2023-02-24T09:05:58;58.42;;;25.15;;
10226;SDS011;15634;48.766;2.272;2023-02-24T09:08:26;54.22;;;23.70;;
10226;SDS011;15634;48.766;2.272;2023-02-24T09:10:57;47.45;;;22.23;;
10226;SDS011;15634;48.766;2.272;2023-02-24T09:13:24;53.83;;;24.50;;
10226;SDS011;15634;48.766;2.272;2023-02-24T09:15:58;50.50;;;22.58;;
10226;SDS011;15634;48.766;2.272;2023-02-24T09:18:27;51.80;;;23.27;;
10226;SDS011;15634;48.766;2.272;2023-02-24T09:21:06;48.35;;;21.98;;
10226;SDS011;15634;48.766;2.272;2023-02-24T09:23:56;50.35;;;21.70;;
10226;SDS011;15634;48.766;2.272;2023-02-24T09:26:24;52.58;;;21.98;;
10226;SDS011;15634;48.766;2.272;2023-02-24T09:28:56;45.42;;;21.77;;
10226;SDS011;15634;48.766;2.272;2023-02-24T09:31:23;48.30;;;22.50;;
10226;SDS011;15634;48.766;2.272;2023-02-24T09:34:05;43.97;;;22.02;;
10226;SDS011;15634;48.766;2.272;2023-02-24T09:36:34;46.67;;;21.50;;
10226;SDS011;15634;48.766;2.272;2023-02-24T09:39:09;51.00;;;21.95;;
10226;SDS011;15634;48.766;2.272;2023-02-24T09:41:38;45.72;;;21.35;;
10226;SDS011;15634;48.766;2.272;2023-02-24T09:44:27;43.80;;;20.80;;
10226;SDS011;15634;48.766;2.272;2023-02-24T09:46:59;47.80;;;21.25;;
10226;SDS011;15634;48.766;2.272;2023-02-24T09:49:38;47.33;;;22.10;;
10226;SDS011;15634;48.766;2.272;2023-02-24T09:52:12;43.95;;;21.88;;
10226;SDS011;15634;48.766;2.272;2023-02-24T09:54:42;49.05;;;20.65;;
10226;SDS011;15634;48.766;2.272;2023-02-24T09:57:40;43.30;;;20.90;;
10226;SDS011;15634;48.766;2.272;2023-02-24T10:00:36;44.42;;;21.30;;
10226;SDS011;15634;48.766;2.272;2023-02-24T10:03:10;43.95;;;20.48;;
10226;SDS011;15634;48.766;2.272;2023-02-24T10:05:47;41.67;;;19.65;;
10226;SDS011;15634;48.766;2.272;2023-02-24T10:08:24;43.42;;;21.67;;
10226;SDS011;15634;48.766;2.272;2023-02-24T10:10:55;45.33;;;20.45;;
10226;SDS011;15634;48.766;2.272;2023-02-24T10:13:31;45.50;;;20.17;;
10226;SDS011;15634;48.766;2.272;2023-02-24T10:15:58;40.40;;;18.90;;
10226;SDS011;15634;48.766;2.272;2023-02-24T10:18:30;42.03;;;20.50;;
10226;SDS011;15634;48.766;2.272;2023-02-24T10:21:02;37.72;;;18.52;;
10226;SDS011;15634;48.766;2.272;2023-02-24T10:23:35;36.53;;;18.67;;
10226;SDS011;15634;48.766;2.272;2023-02-24T10:26:10;41.17;;;19.55;;
10226;SDS011;15634;48.766;2.272;2023-02-24T10:28:55;42.60;;;19.90;;
10226;SDS011;15634;48.766;2.272;2023-02-24T10:31:27;39.60;;;18.45;;
10226;SDS011;15634;48.766;2.272;2023-02-24T10:34:00;41.90;;;19.42;;
10226;SDS011;15634;48.766;2.272;2023-02-24T10:36:31;37.40;;;18.20;;
10226;SDS011;15634;48.766;2.272;2023-02-24T10:39:00;44.15;;;18.73;;
10226;SDS011;15634;48.766;2.272;2023-02-24T10:41:39;38.80;;;17.25;;
10226;SDS011;15634;48.766;2.272;2023-02-24T10:44:09;39.47;;;17.98;;
10226;SDS011;15634;48.766;2.272;2023-02-24T10:46:36;36.75;;;19.10;;
10226;SDS011;15634;48.766;2.272;2023-02-24T10:49:03;42.38;;;18.73;;
10226;SDS011;15634;48.766;2.272;2023-02-24T10:51:37;39.58;;;18.40;;
10226;SDS011;15634;48.766;2.272;2023-02-24T10:54:06;37.78;;;17.88;;
10226;SDS011;15634;48.766;2.272;2023-02-24T10:57:09;41.30;;;17.95;;
10226;SDS011;15634;48.766;2.272;2023-02-24T10:59:46;36.75;;;17.15;;
10226;SDS011;15634;48.766;2.272;2023-02-24T11:02:45;39.22;;;16.65;;
10226;SDS011;15634;48.766;2.272;2023-02-24T11:05:33;42.53;;;17.60;;
10226;SDS011;15634;48.766;2.272;2023-02-24T11:08:13;35.15;;;16.05;;
10226;SDS011;15634;48.766;2.272;2023-02-24T11:11:00;36.50;;;15.35;;
10226;SDS011;15634;48.766;2.272;2023-02-24T11:13:31;34.63;;;16.20;;
10226;SDS011;15634;48.766;2.272;2023-02-24T11:16:15;33.13;;;15.48;;
10226;SDS011;15634;48.766;2.272;2023-02-24T11:19:14;28.27;;;14.55;;
10226;SDS011;15634;48.766;2.272;2023-02-24T11:21:40;36.50;;;15.50;;
10226;SDS011;15634;48.766;2.272;2023-02-24T11:24:09;34.90;;;15.02;;
10226;SDS011;15634;48.766;2.272;2023-02-24T11:26:39;33.83;;;15.70;;
10226;SDS011;15634;48.766;2.272;2023-02-24T11:29:12;31.23;;;14.90;;
10226;SDS011;15634;48.766;2.272;2023-02-24T11:31:54;32.88;;;14.38;;
10226;SDS011;15634;48.766;2.272;2023-02-24T11:34:34;32.63;;;14.50;;
10226;SDS011;15634;48.766;2.272;2023-02-24T11:37:06;32.40;;;15.25;;
10226;SDS011;15634;48.766;2.272;2023-02-24T11:39:46;30.45;;;14.73;;
10226;SDS011;15634;48.766;2.272;2023-02-24T11:42:19;26.80;;;14.35;;
10226;SDS011;15634;48.766;2.272;2023-02-24T11:44:49;30.25;;;14.93;;
10226;SDS011;15634;48.766;2.272;2023-02-24T11:47:19;33.28;;;14.27;;
10226;SDS011;15634;48.766;2.272;2023-02-24T11:49:49;33.45;;;15.02;;
10226;SDS011;15634;48.766;2.272;2023-02-24T11:52:18;29.98;;;14.45;;
10226;SDS011;15634;48.766;2.272;2023-02-24T11:54:49;28.02;;;13.15;;
10226;SDS011;15634;48.766;2.272;2023-02-24T11:57:19;27.83;;;13.60;;
10226;SDS011;15634;48.766;2.272;2023-02-24T11:59:48;29.60;;;13.57;;
10226;SDS011;15634;48.766;2.272;2023-02-24T12:02:18;26.92;;;13.90;;
10226;SDS011;15634;48.766;2.272;2023-02-24T12:04:50;31.98;;;14.07;;
10226;SDS011;15634;48.766;2.272;2023-02-24T12:07:21;27.98;;;13.75;;
10226;SDS011;15634;48.766;2.272;2023-02-24T12:09:54;27.58;;;13.90;;
10226;SDS011;15634;48.766;2.272;2023-02-24T12:12:26;31.98;;;13.55;;
10226;SDS011;15634;48.766;2.272;2023-02-24T12:14:56;26.02;;;12.65;;
10226;SDS011;15634;48.766;2.272;2023-02-24T12:17:27;29.40;;;12.88;;
10226;SDS011;15634;48.766;2.272;2023-02-24T12:19:58;28.65;;;13.38;;
10226;SDS011;15634;48.766;2.272;2023-02-24T12:22:30;25.00;;;12.02;;
10226;SDS011;15634;48.766;2.272;2023-02-24T12:25:09;28.98;;;11.98;;
10226;SDS011;15634;48.766;2.272;2023-02-24T12:27:39;24.05;;;11.70;;
10226;SDS011;15634;48.766;2.272;2023-02-24T12:30:19;29.23;;;12.88;;
10226;SDS011;15634;48.766;2.272;2023-02-24T12:32:59;27.40;;;12.00;;
10226;SDS011;15634;48.766;2.272;2023-02-24T12:35:30;27.60;;;11.65;;
10226;SDS011;15634;48.766;2.272;2023-02-24T12:38:02;26.65;;;12.57;;
10226;SDS011;15634;48.766;2.272;2023-02-24T12:40:41;25.63;;;12.30;;
10226;SDS011;15634;48.766;2.272;2023-02-24T12:43:15;23.95;;;12.38;;
10226;SDS011;15634;48.766;2.272;2023-02-24T12:45:49;21.73;;;11.60;;
10226;SDS011;15634;48.766;2.272;2023-02-24T12:48:23;26.35;;;12.32;;
10226;SDS011;15634;48.766;2.272;2023-02-24T12:50:58;30.92;;;12.15;;
10226;SDS011;15634;48.766;2.272;2023-02-24T12:53:33;28.35;;;12.18;;
10226;SDS011;15634;48.766;2.272;2023-02-24T12:56:08;26.33;;;12.38;;
10226;SDS011;15634;48.766;2.272;2023-02-24T13:01:09;25.77;;;11.93;;
10226;SDS011;15634;48.766;2.272;2023-02-24T13:03:45;23.83;;;11.77;;
10226;SDS011;15634;48.766;2.272;2023-02-24T13:06:20;22.83;;;10.48;;
10226;SDS011;15634;48.766;2.272;2023-02-24T13:08:55;27.73;;;11.88;;
10226;SDS011;15634;48.766;2.272;2023-02-24T13:11:26;25.55;;;11.05;;
10226;SDS011;15634;48.766;2.272;2023-02-24T13:14:02;25.15;;;11.00;;
10226;SDS011;15634;48.766;2.272;2023-02-24T13:16:32;22.73;;;10.75;;
10226;SDS011;15634;48.766;2.272;2023-02-24T13:19:04;28.15;;;12.05;;
10226;SDS011;15634;48.766;2.272;2023-02-24T13:21:32;23.88;;;11.63;;
10226;SDS011;15634;48.766;2.272;2023-02-24T13:24:00;22.60;;;10.75;;
10226;SDS011;15634;48.766;2.272;2023-02-24T13:26:29;30.13;;;12.18;;
10226;SDS011;15634;48.766;2.272;2023-02-24T13:29:00;23.38;;;10.32;;
10226;SDS011;15634;48.766;2.272;2023-02-24T13:31:38;24.08;;;10.57;;
10226;SDS011;15634;48.766;2.272;2023-02-24T13:34:11;24.50;;;10.27;;
10226;SDS011;15634;48.766;2.272;2023-02-24T13:36:44;20.05;;;9.57;;
10226;SDS011;15634;48.766;2.272;2023-02-24T13:39:19;24.50;;;10.50;;
10226;SDS011;15634;48.766;2.272;2023-02-24T13:41:49;19.70;;;10.82;;
10226;SDS011;15634;48.766;2.272;2023-02-24T13:44:28;23.33;;;10.23;;
10226;SDS011;15634;48.766;2.272;2023-02-24T13:47:02;23.27;;;10.40;;
10226;SDS011;15634;48.766;2.272;2023-02-24T13:49:41;22.67;;;9.57;;
10226;SDS011;15634;48.766;2.272;2023-02-24T13:52:14;19.08;;;9.23;;
10226;SDS011;15634;48.766;2.272;2023-02-24T13:54:51;18.40;;;9.30;;
10226;SDS011;15634;48.766;2.272;2023-02-24T14:00:38;21.45;;;9.15;;
10226;SDS011;15634;48.766;2.272;2023-02-24T14:03:16;24.42;;;9.40;;
10226;SDS011;15634;48.766;2.272;2023-02-24T14:05:45;21.42;;;9.40;;
10226;SDS011;15634;48.766;2.272;2023-02-24T14:08:16;20.08;;;9.18;;
10226;SDS011;15634;48.766;2.272;2023-02-24T14:10:44;19.42;;;8.80;;
10226;SDS011;15634;48.766;2.272;2023-02-24T14:13:14;19.40;;;8.20;;
10226;SDS011;15634;48.766;2.272;2023-02-24T14:15:42;15.98;;;7.63;;
10226;SDS011;15634;48.766;2.272;2023-02-24T14:18:15;19.13;;;8.20;;
10226;SDS011;15634;48.766;2.272;2023-02-24T14:20:43;16.80;;;7.78;;
10226;SDS011;15634;48.766;2.272;2023-02-24T14:23:18;17.13;;;7.65;;
10226;SDS011;15634;48.766;2.272;2023-02-24T14:25:47;17.45;;;7.60;;
10226;SDS011;15634;48.766;2.272;2023-02-24T14:28:20;14.30;;;7.20;;
10226;SDS011;15634;48.766;2.272;2023-02-24T14:30:51;13.40;;;7.22;;
10226;SDS011;15634;48.766;2.272;2023-02-24T14:33:20;15.70;;;6.80;;
10226;SDS011;15634;48.766;2.272;2023-02-24T14:35:50;14.18;;;7.10;;
10226;SDS011;15634;48.766;2.272;2023-02-24T14:38:26;19.20;;;7.20;;
10226;SDS011;15634;48.766;2.272;2023-02-24T14:40:54;14.35;;;6.97;;
10226;SDS011;15634;48.766;2.272;2023-02-24T14:43:22;15.93;;;7.35;;
10226;SDS011;15634;48.766;2.272;2023-02-24T14:45:49;12.40;;;6.82;;
10226;SDS011;15634;48.766;2.272;2023-02-24T14:48:20;14.88;;;7.53;;
10226;SDS011;15634;48.766;2.272;2023-02-24T14:50:49;15.38;;;6.78;;
10226;SDS011;15634;48.766;2.272;2023-02-24T14:53:17;14.23;;;6.78;;
10226;SDS011;15634;48.766;2.272;2023-02-24T14:55:48;14.98;;;6.20;;
10226;SDS011;15634;48.766;2.272;2023-02-24T14:58:17;14.75;;;6.68;;
10226;SDS011;15634;48.766;2.272;2023-02-24T15:00:47;15.45;;;7.30;;